Time;durP1;ratioP1;P1;durP2;ratioP2;P2;SDS_P1;SDS_P2;PMS_P1;PMS_P2;Temp;Humidity;BMP_temperature;BMP_pressure;BME280_temperature;BME280_humidity;BME280_pressure;Samples;Min_cycle;Max_cycle;Signal;HPM_P1;HPM_P2
2022/05/17 00:00:47;;;;;;;;;;;19.60;63.90;;;;;;5056257;28;19921;-89
2022/05/17 00:03:13;;;;;;;;;;;19.60;64.00;;;;;;5048826;28;19924;-89
2022/05/17 00:05:39;;;;;;;;;;;19.60;64.10;;;;;;5074182;28;19924;-89
2022/05/17 00:08:04;;;;;;;;;;;19.50;64.00;;;;;;5092645;28;19916;-89
2022/05/17 00:10:30;;;;;;;;;;;19.50;64.00;;;;;;5081291;28;20008;-89
2022/05/17 00:12:55;;;;;;;;;;;19.50;64.00;;;;;;5074777;28;20368;-89
2022/05/17 00:15:21;;;;;;;;;;;19.40;64.10;;;;;;5056724;28;20050;-89
2022/05/17 00:17:48;;;;;;;;;;;19.30;64.10;;;;;;5056033;28;19927;-89
2022/05/17 00:20:14;;;;;;;;;;;19.40;64.10;;;;;;5074954;28;19955;-89
2022/05/17 00:22:40;;;;;;;;;;;19.30;64.10;;;;;;5074840;28;19912;-89
2022/05/17 00:25:06;;;;;;;;;;;19.30;64.10;;;;;;5092595;28;20007;-89
2022/05/17 00:27:31;;;;;;;;;;;19.30;64.00;;;;;;5091825;28;19958;-90
2022/05/17 00:29:57;;;;;;;;;;;19.20;64.00;;;;;;5075361;28;19917;-90
2022/05/17 00:32:22;;;;;;;;;;;19.20;64.00;;;;;;5057426;28;20272;-90
2022/05/17 00:34:48;;;;;;;;;;;19.20;63.90;;;;;;5059565;28;19955;-90
2022/05/17 00:37:14;;;;;;;;;;;19.10;63.80;;;;;;5052299;28;19924;-89
2022/05/17 00:39:39;;;;;;;;;;;19.10;63.80;;;;;;5051130;28;19912;-88
2022/05/17 00:42:05;;;;;;;;;;;19.10;63.90;;;;;;5057175;28;19920;-89
2022/05/17 00:44:43;;;;;;;;;;;19.10;64.10;;;;;;5074530;28;19923;-89
2022/05/17 00:47:21;;;;;;;;;;;19.10;64.40;;;;;;5055608;28;19924;-89
2022/05/17 00:49:55;;;;;;;;;;;19.10;65.00;;;;;;5078356;28;19912;-89
2022/05/17 00:52:26;;;;;;;;;;;19.20;65.50;;;;;;5054864;28;19978;-89
2022/05/17 00:54:54;;;;;;;;;;;19.30;65.80;;;;;;5061979;28;19913;-89
2022/05/17 00:57:34;;;;;;;;;;;19.40;66.10;;;;;;5079577;28;19917;-89
2022/05/17 01:00:02;;;;;;;;;;;19.50;66.10;;;;;;5046031;28;20289;-89
2022/05/17 01:02:28;;;;;;;;;;;19.60;66.30;;;;;;5078173;28;19912;-89
2022/05/17 01:04:54;;;;;;;;;;;19.70;66.20;;;;;;5078942;28;20015;-90
2022/05/17 01:07:20;;;;;;;;;;;19.80;66.30;;;;;;5077597;28;19931;-90
2022/05/17 01:09:47;;;;;;;;;;;19.80;66.40;;;;;;5078476;28;19916;-90
2022/05/17 01:12:12;;;;;;;;;;;19.90;66.30;;;;;;5052633;28;19920;-90
2022/05/17 01:14:58;;;;;;;;;;;19.90;66.40;;;;;;5052417;28;20589;-89
2022/05/17 01:17:33;;;;;;;;;;;20.00;66.30;;;;;;5078808;28;20292;-89
2022/05/17 01:19:59;;;;;;;;;;;20.10;66.40;;;;;;5079346;28;19912;-89
2022/05/17 01:22:25;;;;;;;;;;;20.10;66.30;;;;;;5059548;28;19947;-89
2022/05/17 01:24:52;;;;;;;;;;;20.10;66.10;;;;;;5057539;28;19921;-89
2022/05/17 01:27:17;;;;;;;;;;;20.10;66.00;;;;;;5060596;28;19927;-90
2022/05/17 01:29:44;;;;;;;;;;;20.00;65.70;;;;;;5077672;28;20630;-90
2022/05/17 01:32:10;;;;;;;;;;;20.00;65.50;;;;;;5079736;28;20279;-89
2022/05/17 01:34:38;;;;;;;;;;;19.90;65.40;;;;;;5082012;28;19935;-89
2022/05/17 01:37:04;;;;;;;;;;;19.90;65.20;;;;;;5065290;28;19916;-90
2022/05/17 01:39:30;;;;;;;;;;;19.80;65.00;;;;;;5060620;28;19913;-89
2022/05/17 01:41:56;;;;;;;;;;;19.80;64.90;;;;;;5077335;28;19923;-90
2022/05/17 01:44:23;;;;;;;;;;;19.70;64.90;;;;;;5051364;28;20033;-90
2022/05/17 01:46:48;;;;;;;;;;;19.70;64.90;;;;;;5047295;28;19917;-90
2022/05/17 01:49:14;;;;;;;;;;;19.70;64.90;;;;;;5073697;28;20380;-89
2022/05/17 01:51:39;;;;;;;;;;;19.70;64.90;;;;;;5059553;28;19916;-89
2022/05/17 01:54:05;;;;;;;;;;;19.70;65.00;;;;;;5058832;28;19916;-89
2022/05/17 01:56:30;;;;;;;;;;;19.70;65.20;;;;;;5062606;28;19916;-89
2022/05/17 01:58:56;;;;;;;;;;;19.70;65.30;;;;;;5097107;28;19944;-89
2022/05/17 02:01:21;;;;;;;;;;;19.70;65.30;;;;;;5098968;28;19923;-89
2022/05/17 02:03:46;;;;;;;;;;;19.60;65.20;;;;;;5098755;28;19934;-90
2022/05/17 02:06:12;;;;;;;;;;;19.60;65.00;;;;;;5104049;28;19953;-89
2022/05/17 02:08:37;;;;;;;;;;;19.60;64.90;;;;;;5109556;28;19900;-89
2022/05/17 02:11:03;;;;;;;;;;;19.60;64.90;;;;;;5090009;28;20356;-89
2022/05/17 02:13:29;;;;;;;;;;;19.50;64.90;;;;;;5080408;28;19912;-88
2022/05/17 02:15:55;;;;;;;;;;;19.50;64.70;;;;;;5086505;28;19917;-89
2022/05/17 02:18:20;;;;;;;;;;;19.50;64.80;;;;;;5068118;28;19928;-89
2022/05/17 02:20:46;;;;;;;;;;;19.40;64.90;;;;;;5086975;28;19927;-89
2022/05/17 02:23:11;;;;;;;;;;;19.40;64.90;;;;;;5072918;28;19947;-89
2022/05/17 02:25:36;;;;;;;;;;;19.40;64.90;;;;;;5062988;28;19928;-89
2022/05/17 02:28:03;;;;;;;;;;;19.40;64.80;;;;;;5060940;28;19919;-89
2022/05/17 02:30:29;;;;;;;;;;;19.30;64.90;;;;;;5058899;28;19917;-89
2022/05/17 02:32:55;;;;;;;;;;;19.30;64.90;;;;;;5059650;28;19927;-89
2022/05/17 02:35:20;;;;;;;;;;;19.30;65.00;;;;;;5059074;28;19925;-89
2022/05/17 02:37:46;;;;;;;;;;;19.30;65.10;;;;;;5060130;28;20027;-89
2022/05/17 02:40:12;;;;;;;;;;;19.30;65.10;;;;;;5070080;28;20221;-89
2022/05/17 02:42:37;;;;;;;;;;;19.30;65.10;;;;;;5058337;28;19931;-89
2022/05/17 02:45:03;;;;;;;;;;;19.30;65.10;;;;;;5076591;28;19924;-89
2022/05/17 02:47:29;;;;;;;;;;;19.30;65.20;;;;;;5058282;28;20015;-89
2022/05/17 02:49:54;;;;;;;;;;;19.20;65.10;;;;;;5077401;28;20022;-88
2022/05/17 02:52:20;;;;;;;;;;;19.20;65.10;;;;;;5057635;28;21931;-89
2022/05/17 02:54:45;;;;;;;;;;;19.20;65.20;;;;;;5075720;28;19972;-89
2022/05/17 02:57:11;;;;;;;;;;;19.30;65.20;;;;;;5055504;28;19917;-88
2022/05/17 02:59:36;;;;;;;;;;;19.20;65.20;;;;;;5076183;28;19991;-88
2022/05/17 03:02:02;;;;;;;;;;;19.20;65.10;;;;;;5077115;28;20359;-89
2022/05/17 03:04:27;;;;;;;;;;;19.20;65.10;;;;;;5067697;28;19917;-89
2022/05/17 03:06:53;;;;;;;;;;;19.20;65.10;;;;;;5075875;28;20329;-88
2022/05/17 03:09:19;;;;;;;;;;;19.20;65.00;;;;;;5057731;28;19913;-90
2022/05/17 03:11:44;;;;;;;;;;;19.20;64.90;;;;;;5058171;28;19974;-89
2022/05/17 03:14:11;;;;;;;;;;;19.10;64.80;;;;;;5043145;28;19936;-89
2022/05/17 03:16:36;;;;;;;;;;;19.10;64.70;;;;;;5057123;28;20278;-89
2022/05/17 03:19:03;;;;;;;;;;;19.10;64.60;;;;;;5055582;28;19969;-89
2022/05/17 03:21:28;;;;;;;;;;;19.00;64.50;;;;;;5049925;28;19969;-90
2022/05/17 03:23:54;;;;;;;;;;;19.00;64.50;;;;;;5076462;28;20371;-89
2022/05/17 03:26:20;;;;;;;;;;;19.00;64.30;;;;;;5057272;28;19932;-89
2022/05/17 03:28:46;;;;;;;;;;;19.00;64.20;;;;;;5075272;28;19917;-89
2022/05/17 03:31:11;;;;;;;;;;;18.90;64.20;;;;;;5075344;28;19966;-89
2022/05/17 03:33:38;;;;;;;;;;;18.90;64.10;;;;;;5075830;28;20452;-88
2022/05/17 03:36:04;;;;;;;;;;;18.80;64.00;;;;;;5074459;28;19962;-89
2022/05/17 03:38:29;;;;;;;;;;;18.80;63.90;;;;;;5056681;28;19930;-89
2022/05/17 03:40:55;;;;;;;;;;;18.70;63.80;;;;;;5056519;28;19999;-90
2022/05/17 03:43:20;;;;;;;;;;;18.70;63.90;;;;;;5054716;28;20266;-88
2022/05/17 03:45:47;;;;;;;;;;;18.70;64.00;;;;;;5074323;28;19969;-89
2022/05/17 03:48:12;;;;;;;;;;;18.70;64.10;;;;;;5049810;28;19912;-89
2022/05/17 03:50:38;;;;;;;;;;;18.60;64.10;;;;;;5075520;28;20627;-89
2022/05/17 03:53:04;;;;;;;;;;;18.60;64.20;;;;;;5075611;28;19919;-89
2022/05/17 03:55:29;;;;;;;;;;;18.60;64.30;;;;;;5055215;28;19916;-89
2022/05/17 03:57:55;;;;;;;;;;;18.70;64.30;;;;;;5075086;28;19916;-89
2022/05/17 04:00:22;;;;;;;;;;;18.60;64.30;;;;;;5049436;28;19977;-89
2022/05/17 04:02:47;;;;;;;;;;;18.60;64.40;;;;;;5075114;28;20402;-89
2022/05/17 04:05:13;;;;;;;;;;;18.60;64.50;;;;;;5039638;28;19930;-88
2022/05/17 04:07:38;;;;;;;;;;;18.60;64.70;;;;;;5068781;28;20003;-89
2022/05/17 04:10:05;;;;;;;;;;;18.60;64.80;;;;;;5047619;28;19913;-89
2022/05/17 04:12:31;;;;;;;;;;;18.70;65.00;;;;;;5056021;28;19913;-89
2022/05/17 04:14:56;;;;;;;;;;;18.70;65.60;;;;;;5075725;28;19934;-89
2022/05/17 04:17:22;;;;;;;;;;;18.90;66.60;;;;;;5067484;28;19923;-90
2022/05/17 04:19:47;;;;;;;;;;;19.20;67.30;;;;;;5074685;28;19919;-89
2022/05/17 04:22:13;;;;;;;;;;;19.50;67.80;;;;;;5058680;28;19917;-90
2022/05/17 04:24:41;;;;;;;;;;;19.80;68.20;;;;;;5041062;28;19967;-90
2022/05/17 04:27:07;;;;;;;;;;;20.20;68.70;;;;;;5049916;28;19956;-90
2022/05/17 04:29:32;;;;;;;;;;;20.50;68.90;;;;;;5080818;28;19920;-90
2022/05/17 04:31:58;;;;;;;;;;;20.80;68.30;;;;;;5060810;28;20012;-90
2022/05/17 04:34:23;;;;;;;;;;;21.00;67.80;;;;;;5071562;28;19924;-89
2022/05/17 04:36:49;;;;;;;;;;;21.20;68.00;;;;;;5080457;28;19917;-89
2022/05/17 04:39:14;;;;;;;;;;;21.50;68.10;;;;;;5078124;28;19913;-89
2022/05/17 04:41:40;;;;;;;;;;;21.80;68.60;;;;;;5056922;28;19981;-90
2022/05/17 04:44:05;;;;;;;;;;;22.10;69.40;;;;;;5075901;28;19920;-89
2022/05/17 04:46:31;;;;;;;;;;;22.50;69.80;;;;;;5059840;28;19927;-90
2022/05/17 04:48:56;;;;;;;;;;;23.00;70.10;;;;;;5077741;28;19912;-90
2022/05/17 04:51:23;;;;;;;;;;;23.40;70.10;;;;;;5079980;28;19963;-90
2022/05/17 04:53:48;;;;;;;;;;;23.80;70.20;;;;;;5076960;28;19965;-90
2022/05/17 04:56:14;;;;;;;;;;;24.20;70.30;;;;;;5075014;28;19984;-90
2022/05/17 04:58:40;;;;;;;;;;;24.60;70.70;;;;;;5075890;28;19916;-90
2022/05/17 05:01:05;;;;;;;;;;;25.00;70.70;;;;;;5054116;28;19921;-89
2022/05/17 05:03:31;;;;;;;;;;;25.50;70.80;;;;;;5058960;28;19920;-90
2022/05/17 05:05:57;;;;;;;;;;;25.90;70.80;;;;;;5078486;28;19921;-91
2022/05/17 05:08:22;;;;;;;;;;;26.30;70.80;;;;;;5079622;28;20345;-90
2022/05/17 05:10:48;;;;;;;;;;;26.80;70.50;;;;;;5061871;28;19923;-90
2022/05/17 05:13:17;;;;;;;;;;;27.20;70.30;;;;;;5080037;28;20322;-90
2022/05/17 05:15:42;;;;;;;;;;;27.60;69.80;;;;;;5060634;28;19948;-90
2022/05/17 05:18:08;;;;;;;;;;;27.90;69.40;;;;;;5059199;28;19935;-90
2022/05/17 05:20:34;;;;;;;;;;;28.20;69.10;;;;;;5068913;28;19984;-90
2022/05/17 05:23:00;;;;;;;;;;;28.50;69.40;;;;;;5060595;28;20228;-90
2022/05/17 05:25:26;;;;;;;;;;;28.80;69.80;;;;;;5060307;28;20016;-91
2022/05/17 05:27:51;;;;;;;;;;;29.30;70.20;;;;;;5078224;28;19958;-90
2022/05/17 05:30:19;;;;;;;;;;;29.70;70.60;;;;;;5043812;28;19923;-90
2022/05/17 05:32:46;;;;;;;;;;;30.00;70.30;;;;;;5059057;28;20327;-90
2022/05/17 05:35:13;;;;;;;;;;;30.40;70.20;;;;;;5055923;28;19912;-90
2022/05/17 05:37:39;;;;;;;;;;;30.80;70.10;;;;;;5077918;28;19908;-91
2022/05/17 05:40:05;;;;;;;;;;;31.20;69.50;;;;;;5059982;28;19927;-91
2022/05/17 05:42:31;;;;;;;;;;;31.50;69.60;;;;;;5060562;28;19912;-89
2022/05/17 05:44:57;;;;;;;;;;;31.80;69.70;;;;;;5069037;28;20330;-89
2022/05/17 05:47:23;;;;;;;;;;;32.20;69.80;;;;;;5075839;28;19916;-89
2022/05/17 05:49:49;;;;;;;;;;;32.50;70.10;;;;;;5067072;28;19913;-89
2022/05/17 05:52:15;;;;;;;;;;;32.90;70.00;;;;;;5044129;28;19927;-89
2022/05/17 05:54:41;;;;;;;;;;;33.30;69.90;;;;;;5066407;28;19913;-90
2022/05/17 05:57:06;;;;;;;;;;;33.70;69.60;;;;;;5060518;28;19923;-89
2022/05/17 05:59:32;;;;;;;;;;;34.10;69.30;;;;;;5069222;28;20000;-89
2022/05/17 06:01:57;;;;;;;;;;;34.50;69.20;;;;;;5044800;28;19921;-89
2022/05/17 06:04:27;;;;;;;;;;;34.90;69.00;;;;;;5070284;28;20007;-89
2022/05/17 06:06:53;;;;;;;;;;;35.30;68.80;;;;;;5037765;28;20585;-89
2022/05/17 06:09:19;;;;;;;;;;;35.70;69.00;;;;;;5058129;28;19922;-89
2022/05/17 06:11:44;;;;;;;;;;;36.00;68.90;;;;;;5077948;28;19988;-89
2022/05/17 06:14:10;;;;;;;;;;;36.00;67.20;;;;;;5060759;28;19938;-89
2022/05/17 06:16:35;;;;;;;;;;;36.00;66.10;;;;;;5076717;28;20027;-89
2022/05/17 06:19:01;;;;;;;;;;;36.00;65.80;;;;;;5060685;28;19917;-90
2022/05/17 06:21:26;;;;;;;;;;;36.00;64.20;;;;;;5076950;28;19920;-90
2022/05/17 06:23:52;;;;;;;;;;;36.00;64.70;;;;;;5076051;28;20007;-89
2022/05/17 06:26:17;;;;;;;;;;;35.90;63.60;;;;;;5073174;28;19925;-88
2022/05/17 06:28:42;;;;;;;;;;;35.80;63.30;;;;;;5066103;28;19916;-90
2022/05/17 06:31:08;;;;;;;;;;;35.70;65.30;;;;;;5053506;28;19928;-90
2022/05/17 06:33:34;;;;;;;;;;;35.70;67.30;;;;;;5053684;28;19916;-90
2022/05/17 06:35:59;;;;;;;;;;;35.80;65.90;;;;;;5056927;28;20324;-90
2022/05/17 06:38:25;;;;;;;;;;;35.80;64.60;;;;;;5055775;28;19912;-90
2022/05/17 06:40:51;;;;;;;;;;;35.90;63.90;;;;;;5035707;28;19927;-89
2022/05/17 06:43:17;;;;;;;;;;;36.10;64.40;;;;;;5054312;28;20004;-89
2022/05/17 06:45:42;;;;;;;;;;;36.30;63.80;;;;;;5053404;28;20023;-89
2022/05/17 06:48:08;;;;;;;;;;;36.40;62.70;;;;;;5053445;28;19923;-90
2022/05/17 06:50:33;;;;;;;;;;;36.70;61.10;;;;;;5052681;28;20011;-89
2022/05/17 06:52:59;;;;;;;;;;;36.80;60.40;;;;;;5053537;28;20360;-89
2022/05/17 06:55:24;;;;;;;;;;;37.00;60.00;;;;;;5053832;28;19979;-89
2022/05/17 06:57:50;;;;;;;;;;;37.20;61.10;;;;;;5067825;28;19992;-89
2022/05/17 07:00:17;;;;;;;;;;;37.40;59.90;;;;;;5078158;28;20360;-89
2022/05/17 07:02:42;;;;;;;;;;;37.70;59.90;;;;;;5056201;28;19916;-89
2022/05/17 07:05:09;;;;;;;;;;;38.20;60.10;;;;;;5056382;28;20256;-89
2022/05/17 07:07:34;;;;;;;;;;;38.40;57.20;;;;;;5073822;28;19916;-89
2022/05/17 07:15:28;;;;;;;;;;;39.40;55.30;;;;;;5073940;28;19927;-90
2022/05/17 07:17:54;;;;;;;;;;;39.80;52.40;;;;;;5072588;28;19912;-90
2022/05/17 07:20:19;;;;;;;;;;;40.00;50.30;;;;;;5073347;28;20007;-89
2022/05/17 07:22:45;;;;;;;;;;;40.20;50.00;;;;;;5078882;28;19924;-89
2022/05/17 07:25:11;;;;;;;;;;;40.20;49.40;;;;;;5059097;28;19925;-89
2022/05/17 07:27:36;;;;;;;;;;;40.20;49.90;;;;;;5053634;28;19932;-90
2022/05/17 07:30:06;;;;;;;;;;;40.20;50.00;;;;;;5034700;28;19984;-90
2022/05/17 07:32:31;;;;;;;;;;;40.10;48.60;;;;;;5035023;28;19916;-89
2022/05/17 07:34:56;;;;;;;;;;;40.10;49.30;;;;;;5056058;28;19951;-90
2022/05/17 07:37:22;;;;;;;;;;;40.30;48.80;;;;;;5053047;28;19924;-90
2022/05/17 07:39:47;;;;;;;;;;;40.50;49.30;;;;;;5054230;28;19959;-90
2022/05/17 07:42:14;;;;;;;;;;;40.70;45.80;;;;;;5036398;28;19920;-90
2022/05/17 07:44:39;;;;;;;;;;;40.90;45.90;;;;;;5052308;28;20394;-89
2022/05/17 07:47:05;;;;;;;;;;;41.20;43.70;;;;;;5073491;28;20011;-89
2022/05/17 07:49:34;;;;;;;;;;;41.40;43.90;;;;;;5067389;28;19917;-90
2022/05/17 07:52:00;;;;;;;;;;;41.60;41.70;;;;;;5055712;28;20364;-89
2022/05/17 07:54:25;;;;;;;;;;;41.70;42.00;;;;;;5056095;28;19971;-89
2022/05/17 07:56:51;;;;;;;;;;;41.80;41.30;;;;;;5074301;28;19917;-90
2022/05/17 07:59:16;;;;;;;;;;;42.10;40.90;;;;;;5072885;28;19923;-90
2022/05/17 08:01:42;;;;;;;;;;;42.40;40.10;;;;;;5073861;28;19916;-90
2022/05/17 08:04:07;;;;;;;;;;;42.70;39.80;;;;;;5067806;28;19920;-90
2022/05/17 08:06:35;;;;;;;;;;;42.90;39.10;;;;;;5053901;28;20364;-90
2022/05/17 08:09:01;;;;;;;;;;;43.20;38.50;;;;;;5054331;28;19913;-89
2022/05/17 08:11:26;;;;;;;;;;;43.20;37.40;;;;;;5035951;28;19943;-90
2022/05/17 08:13:52;;;;;;;;;;;43.30;36.10;;;;;;5036074;28;19913;-93
2022/05/17 08:16:17;;;;;;;;;;;43.40;35.20;;;;;;5036906;28;19987;-89
2022/05/17 08:18:43;;;;;;;;;;;43.40;33.90;;;;;;5037631;28;19952;-90
2022/05/17 08:21:09;;;;;;;;;;;43.30;32.60;;;;;;5074065;28;19919;-90
2022/05/17 08:23:34;;;;;;;;;;;43.30;32.80;;;;;;5072436;28;19966;-90
2022/05/17 08:28:44;;;;;;;;;;;43.50;32.70;;;;;;5056339;28;19923;-90
2022/05/17 08:31:10;;;;;;;;;;;43.80;30.90;;;;;;5055854;28;20291;-90
2022/05/17 08:33:37;;;;;;;;;;;43.80;30.00;;;;;;5073539;28;19927;-91
2022/05/17 08:36:04;;;;;;;;;;;43.70;28.10;;;;;;5054590;28;20368;-90
2022/05/17 08:38:34;;;;;;;;;;;43.50;27.50;;;;;;5054021;28;19943;-91
2022/05/17 08:41:05;;;;;;;;;;;43.30;27.10;;;;;;5035604;28;19917;-89
2022/05/17 08:43:50;;;;;;;;;;;43.10;26.50;;;;;;5035172;28;19960;-89
2022/05/17 08:46:26;;;;;;;;;;;42.70;26.30;;;;;;5055085;28;20027;-90
2022/05/17 08:48:57;;;;;;;;;;;42.40;25.80;;;;;;5054357;28;19926;-89
2022/05/17 08:51:25;;;;;;;;;;;42.10;26.30;;;;;;5054555;28;19916;-90
2022/05/17 08:53:52;;;;;;;;;;;42.10;26.90;;;;;;5065333;28;19921;-90
2022/05/17 08:56:19;;;;;;;;;;;42.20;26.90;;;;;;5054691;28;20414;-89
2022/05/17 08:58:45;;;;;;;;;;;42.40;25.70;;;;;;5073306;28;20364;-89
2022/05/17 09:01:16;;;;;;;;;;;42.40;26.10;;;;;;5072960;28;19913;-89
2022/05/17 09:03:56;;;;;;;;;;;42.60;25.60;;;;;;5080695;28;19931;-87
2022/05/17 09:06:45;;;;;;;;;;;42.80;25.20;;;;;;5055218;28;19927;-89
2022/05/17 09:09:18;;;;;;;;;;;43.10;24.90;;;;;;5059286;28;20276;-88
2022/05/17 09:11:49;;;;;;;;;;;43.20;21.90;;;;;;5077102;28;19912;-89
2022/05/17 09:14:19;;;;;;;;;;;43.00;23.00;;;;;;5079151;28;19921;-90
2022/05/17 09:16:46;;;;;;;;;;;43.30;23.90;;;;;;5057621;28;19996;-89
2022/05/17 09:19:13;;;;;;;;;;;43.50;23.00;;;;;;5059768;28;19966;-89
2022/05/17 09:21:41;;;;;;;;;;;43.80;22.60;;;;;;5074673;28;19917;-90
2022/05/17 09:24:15;;;;;;;;;;;44.00;21.60;;;;;;5058096;28;19932;-89
2022/05/17 09:26:46;;;;;;;;;;;44.20;20.00;;;;;;5075874;28;19921;-88
2022/05/17 09:29:15;;;;;;;;;;;44.20;18.40;;;;;;5077242;28;19936;-89
2022/05/17 09:31:46;;;;;;;;;;;44.20;18.90;;;;;;5075426;28;19925;-89
2022/05/17 09:34:11;;;;;;;;;;;44.30;19.30;;;;;;5074320;28;20419;-89
2022/05/17 09:36:56;;;;;;;;;;;44.30;19.30;;;;;;5075153;28;19920;-90
2022/05/17 09:39:22;;;;;;;;;;;44.30;19.40;;;;;;5070296;28;19969;-91
2022/05/17 09:41:48;;;;;;;;;;;44.50;19.50;;;;;;5079484;28;20189;-89
2022/05/17 09:44:19;;;;;;;;;;;44.70;18.70;;;;;;5066318;28;19977;-90
2022/05/17 09:46:46;;;;;;;;;;;44.70;18.80;;;;;;5055839;28;20480;-90
2022/05/17 09:54:45;;;;;;;;;;;44.20;17.80;;;;;;5076763;28;19927;-89
2022/05/17 09:57:16;;;;;;;;;;;44.00;18.40;;;;;;5063519;28;19916;-89
2022/05/17 09:59:42;;;;;;;;;;;44.10;18.40;;;;;;5058327;28;19923;-90
2022/05/17 10:02:25;;;;;;;;;;;43.90;18.60;;;;;;5065122;28;19916;-90
2022/05/17 10:04:51;;;;;;;;;;;43.80;18.80;;;;;;5060976;28;19920;-89
2022/05/17 10:07:18;;;;;;;;;;;43.90;19.10;;;;;;5075613;28;20003;-89
2022/05/17 10:09:44;;;;;;;;;;;44.10;19.10;;;;;;5074776;28;19912;-90
2022/05/17 10:12:19;;;;;;;;;;;44.00;18.80;;;;;;5057789;28;19996;-90
2022/05/17 10:14:52;;;;;;;;;;;43.70;18.80;;;;;;5078427;28;19912;-90
2022/05/17 10:17:28;;;;;;;;;;;43.60;19.10;;;;;;5065688;28;19917;-91
2022/05/17 10:20:00;;;;;;;;;;;43.80;19.60;;;;;;5065752;28;19916;-90
2022/05/17 10:22:35;;;;;;;;;;;44.30;19.30;;;;;;5064753;28;19976;-90
2022/05/17 10:25:04;;;;;;;;;;;44.70;18.90;;;;;;5061678;28;19929;-91
2022/05/17 10:27:34;;;;;;;;;;;44.90;18.80;;;;;;5055142;28;19909;-90
2022/05/17 10:30:19;;;;;;;;;;;45.10;19.00;;;;;;5067371;28;19920;-90
2022/05/17 10:33:01;;;;;;;;;;;45.50;19.00;;;;;;5056347;28;20334;-89
2022/05/17 10:35:32;;;;;;;;;;;45.70;18.80;;;;;;5056880;28;19912;-90
2022/05/17 10:38:12;;;;;;;;;;;45.70;18.20;;;;;;5056757;28;19963;-90
2022/05/17 10:40:43;;;;;;;;;;;45.20;18.10;;;;;;5075356;28;19916;-90
2022/05/17 10:43:11;;;;;;;;;;;44.50;18.20;;;;;;5064715;28;20026;-89
2022/05/17 10:45:36;;;;;;;;;;;43.90;18.40;;;;;;5056284;28;19963;-89
2022/05/17 10:48:11;;;;;;;;;;;43.30;19.00;;;;;;5056623;28;19927;-89
2022/05/17 10:50:45;;;;;;;;;;;43.10;19.50;;;;;;5070599;28;19916;-90
2022/05/17 10:53:10;;;;;;;;;;;43.00;19.80;;;;;;5086903;28;20365;-89
2022/05/17 10:55:55;;;;;;;;;;;42.70;19.70;;;;;;5074509;28;19927;-90
2022/05/17 10:58:33;;;;;;;;;;;42.40;20.00;;;;;;5055964;28;20351;-89
2022/05/17 11:01:02;;;;;;;;;;;42.10;20.30;;;;;;5037963;28;20014;-90
2022/05/17 11:03:31;;;;;;;;;;;41.80;20.50;;;;;;5063727;28;19928;-89
2022/05/17 11:06:11;;;;;;;;;;;41.70;20.60;;;;;;5062096;28;19979;-89
2022/05/17 11:08:47;;;;;;;;;;;41.50;20.70;;;;;;5073364;28;19920;-89
2022/05/17 11:11:21;;;;;;;;;;;41.30;20.80;;;;;;5073369;28;19952;-88
2022/05/17 11:13:49;;;;;;;;;;;41.30;20.40;;;;;;5054161;28;20360;-88
2022/05/17 11:16:26;;;;;;;;;;;41.30;20.70;;;;;;5040044;28;19920;-89
2022/05/17 11:18:55;;;;;;;;;;;41.80;20.60;;;;;;5056232;28;19916;-88
2022/05/17 11:21:25;;;;;;;;;;;42.10;20.70;;;;;;5073766;28;19917;-88
2022/05/17 11:23:56;;;;;;;;;;;42.30;20.50;;;;;;5054991;28;20044;-88
2022/05/17 11:26:28;;;;;;;;;;;42.20;20.00;;;;;;5061728;28;19927;-89
2022/05/17 11:28:54;;;;;;;;;;;42.10;20.20;;;;;;5077062;28;19912;-89
2022/05/17 11:31:19;;;;;;;;;;;42.20;20.50;;;;;;5073351;28;20353;-89
2022/05/17 11:33:44;;;;;;;;;;;42.30;20.30;;;;;;5061013;28;19916;-88
2022/05/17 11:36:12;;;;;;;;;;;42.60;20.30;;;;;;5077321;28;19919;-89
2022/05/17 11:38:37;;;;;;;;;;;42.90;20.40;;;;;;5058997;28;19927;-89
2022/05/17 11:41:08;;;;;;;;;;;43.10;20.30;;;;;;5058724;28;19916;-89
2022/05/17 11:43:40;;;;;;;;;;;42.80;20.00;;;;;;5064185;28;21426;-88
2022/05/17 11:46:06;;;;;;;;;;;42.50;20.10;;;;;;5065387;28;19927;-89
2022/05/17 11:48:45;;;;;;;;;;;42.60;20.10;;;;;;5055559;28;20296;-90
2022/05/17 11:51:11;;;;;;;;;;;42.50;19.70;;;;;;5074468;28;19940;-90
2022/05/17 11:53:41;;;;;;;;;;;42.20;20.00;;;;;;5039557;28;20554;-89
2022/05/17 11:56:11;;;;;;;;;;;41.90;19.70;;;;;;5058499;28;19916;-90
2022/05/17 11:58:37;;;;;;;;;;;41.50;19.60;;;;;;5056475;28;19913;-87
2022/05/17 12:01:02;;;;;;;;;;;41.30;19.80;;;;;;5072951;28;19916;-89
2022/05/17 12:03:45;;;;;;;;;;;41.00;20.10;;;;;;5072417;28;20039;-88
2022/05/17 12:06:26;;;;;;;;;;;40.80;20.30;;;;;;5075349;28;20291;-89
2022/05/17 12:08:51;;;;;;;;;;;40.70;20.40;;;;;;5060189;28;20294;-90
2022/05/17 12:11:27;;;;;;;;;;;40.30;20.40;;;;;;5063006;28;19916;-89
2022/05/17 12:13:53;;;;;;;;;;;39.90;20.70;;;;;;5065904;28;20306;-89
2022/05/17 12:16:21;;;;;;;;;;;39.60;20.90;;;;;;5078930;28;19938;-90
2022/05/17 12:18:52;;;;;;;;;;;39.40;21.30;;;;;;5061041;28;19913;-90
2022/05/17 12:21:20;;;;;;;;;;;39.20;21.50;;;;;;5078855;28;19916;-91
2022/05/17 12:23:49;;;;;;;;;;;38.90;21.70;;;;;;5083021;28;19924;-89
2022/05/17 12:26:21;;;;;;;;;;;38.70;21.80;;;;;;5063570;28;20856;-89
2022/05/17 12:28:49;;;;;;;;;;;38.30;22.00;;;;;;5059729;28;19934;-89
2022/05/17 12:31:24;;;;;;;;;;;38.10;22.40;;;;;;5076698;28;19916;-89
2022/05/17 12:33:50;;;;;;;;;;;37.80;22.40;;;;;;5068409;28;19912;-89
2022/05/17 12:36:16;;;;;;;;;;;37.40;22.50;;;;;;5077428;28;20007;-88
2022/05/17 12:44:26;;;;;;;;;;;36.50;23.50;;;;;;5060762;28;19939;-88
2022/05/17 12:46:53;;;;;;;;;;;36.30;23.70;;;;;;5048134;28;19960;-87
2022/05/17 12:49:23;;;;;;;;;;;36.00;23.90;;;;;;5042881;28;20008;-88
2022/05/17 12:51:50;;;;;;;;;;;35.80;24.00;;;;;;5041873;28;19917;-89
2022/05/17 12:54:18;;;;;;;;;;;35.50;24.10;;;;;;5057122;28;19916;-89
2022/05/17 12:56:43;;;;;;;;;;;35.30;24.40;;;;;;5071842;28;19921;-88
2022/05/17 12:59:10;;;;;;;;;;;35.10;24.60;;;;;;5057782;28;19917;-88
2022/05/17 13:01:38;;;;;;;;;;;35.00;24.80;;;;;;5076037;28;19928;-90
2022/05/17 13:04:15;;;;;;;;;;;34.80;25.00;;;;;;5060687;28;20368;-89
2022/05/17 13:06:42;;;;;;;;;;;34.60;25.20;;;;;;5061100;28;20371;-90
2022/05/17 13:09:16;;;;;;;;;;;34.50;25.50;;;;;;5061255;28;20229;-89
2022/05/17 13:11:42;;;;;;;;;;;34.40;25.60;;;;;;5053373;28;19963;-90
2022/05/17 13:14:08;;;;;;;;;;;34.30;25.80;;;;;;5048318;28;19924;-90
2022/05/17 13:16:36;;;;;;;;;;;34.30;25.90;;;;;;5060860;28;19924;-90
2022/05/17 13:19:04;;;;;;;;;;;34.20;25.90;;;;;;5078261;28;19909;-89
2022/05/17 13:21:30;;;;;;;;;;;34.10;26.10;;;;;;5077196;28;19921;-88
2022/05/17 13:23:58;;;;;;;;;;;34.10;26.30;;;;;;5066806;28;19950;-89
2022/05/17 13:26:26;;;;;;;;;;;34.10;26.50;;;;;;5064567;28;19927;-89
2022/05/17 13:28:52;;;;;;;;;;;34.00;26.50;;;;;;5070654;28;19919;-90
2022/05/17 13:31:22;;;;;;;;;;;34.00;26.70;;;;;;5058584;28;19917;-89
2022/05/17 13:33:59;;;;;;;;;;;34.00;26.70;;;;;;5055723;28;19920;-89
2022/05/17 13:36:29;;;;;;;;;;;33.90;26.80;;;;;;5057422;28;19939;-90
2022/05/17 13:38:55;;;;;;;;;;;33.90;26.90;;;;;;5065868;28;19917;-89
2022/05/17 13:41:40;;;;;;;;;;;33.80;26.90;;;;;;5074751;28;20372;-90
2022/05/17 13:44:06;;;;;;;;;;;33.70;26.90;;;;;;5077259;28;19922;-90
2022/05/17 13:46:39;;;;;;;;;;;33.70;27.10;;;;;;5078036;28;20360;-89
2022/05/17 13:49:14;;;;;;;;;;;33.60;27.20;;;;;;5061956;28;20356;-91
2022/05/17 13:51:43;;;;;;;;;;;33.60;27.40;;;;;;5094172;28;20704;-89
2022/05/17 13:54:13;;;;;;;;;;;33.60;27.50;;;;;;5079497;28;20401;-89
2022/05/17 13:56:41;;;;;;;;;;;33.60;27.50;;;;;;5066910;28;20205;-90
2022/05/17 13:59:06;;;;;;;;;;;33.70;27.50;;;;;;5067193;28;19916;-89
2022/05/17 14:01:37;;;;;;;;;;;33.80;27.50;;;;;;5097727;28;19916;-88
2022/05/17 14:04:06;;;;;;;;;;;34.00;27.40;;;;;;5087614;28;19951;-91
2022/05/17 14:06:48;;;;;;;;;;;34.10;27.50;;;;;;5059602;28;19948;-90
2022/05/17 14:11:59;;;;;;;;;;;34.30;27.40;;;;;;5080726;28;19927;-88
2022/05/17 14:14:26;;;;;;;;;;;34.30;27.30;;;;;;5055255;28;19913;-88
2022/05/17 14:17:00;;;;;;;;;;;34.50;27.10;;;;;;5042855;28;19917;-90
2022/05/17 14:19:26;;;;;;;;;;;34.60;27.00;;;;;;5039669;28;19924;-89
2022/05/17 14:21:56;;;;;;;;;;;34.70;27.10;;;;;;5040405;28;19940;-91
2022/05/17 14:24:21;;;;;;;;;;;34.70;27.10;;;;;;5050361;28;19913;-91
2022/05/17 14:26:48;;;;;;;;;;;34.60;27.20;;;;;;5061002;28;19970;-87
2022/05/17 14:29:14;;;;;;;;;;;34.50;27.30;;;;;;5064056;28;19912;-90
2022/05/17 14:31:43;;;;;;;;;;;34.40;27.80;;;;;;5077631;28;19922;-90
2022/05/17 14:34:09;;;;;;;;;;;34.20;29.10;;;;;;5076577;28;19912;-91
2022/05/17 14:36:36;;;;;;;;;;;33.80;29.90;;;;;;5077519;28;19920;-90
2022/05/17 14:39:03;;;;;;;;;;;33.40;30.50;;;;;;5082075;28;19913;-90
2022/05/17 14:41:30;;;;;;;;;;;33.10;31.10;;;;;;5057836;28;19917;-90